sensor_id;sensor_type;location;lat;lon;timestamp;P1;durP1;ratioP1;P2;durP2;ratioP2
15327;SDS011;7764;51.430;6.840;2023-06-22T00:02:16;10.43;;;6.53;;
15327;SDS011;7764;51.430;6.840;2023-06-22T00:04:43;12.25;;;8.20;;
15327;SDS011;7764;51.430;6.840;2023-06-22T00:07:09;10.93;;;7.80;;
15327;SDS011;7764;51.430;6.840;2023-06-22T00:09:36;13.15;;;8.88;;
15327;SDS011;7764;51.430;6.840;2023-06-22T00:12:03;12.20;;;8.40;;
15327;SDS011;7764;51.430;6.840;2023-06-22T00:14:32;12.48;;;7.43;;
15327;SDS011;7764;51.430;6.840;2023-06-22T00:16:59;11.00;;;7.38;;
15327;SDS011;7764;51.430;6.840;2023-06-22T00:19:26;12.25;;;8.50;;
15327;SDS011;7764;51.430;6.840;2023-06-22T00:21:53;10.77;;;8.27;;
15327;SDS011;7764;51.430;6.840;2023-06-22T00:24:20;14.88;;;7.90;;
15327;SDS011;7764;51.430;6.840;2023-06-22T00:26:47;11.65;;;7.72;;
15327;SDS011;7764;51.430;6.840;2023-06-22T00:29:14;13.00;;;9.20;;
15327;SDS011;7764;51.430;6.840;2023-06-22T00:31:42;11.35;;;8.23;;
15327;SDS011;7764;51.430;6.840;2023-06-22T00:34:09;11.15;;;7.78;;
15327;SDS011;7764;51.430;6.840;2023-06-22T00:36:36;12.25;;;7.55;;
15327;SDS011;7764;51.430;6.840;2023-06-22T00:39:05;11.23;;;7.90;;
15327;SDS011;7764;51.430;6.840;2023-06-22T00:41:33;10.02;;;7.43;;
15327;SDS011;7764;51.430;6.840;2023-06-22T00:44:00;12.10;;;7.82;;
15327;SDS011;7764;51.430;6.840;2023-06-22T00:46:27;10.73;;;8.05;;
15327;SDS011;7764;51.430;6.840;2023-06-22T00:48:55;12.73;;;8.00;;
15327;SDS011;7764;51.430;6.840;2023-06-22T00:51:23;12.65;;;8.23;;
15327;SDS011;7764;51.430;6.840;2023-06-22T00:53:50;13.25;;;8.93;;
15327;SDS011;7764;51.430;6.840;2023-06-22T00:56:18;14.60;;;9.55;;
15327;SDS011;7764;51.430;6.840;2023-06-22T00:58:49;13.50;;;9.70;;
15327;SDS011;7764;51.430;6.840;2023-06-22T01:01:18;13.02;;;9.68;;
15327;SDS011;7764;51.430;6.840;2023-06-22T01:03:48;13.68;;;10.10;;
15327;SDS011;7764;51.430;6.840;2023-06-22T01:06:19;12.82;;;9.95;;
15327;SDS011;7764;51.430;6.840;2023-06-22T01:08:54;14.77;;;10.23;;
15327;SDS011;7764;51.430;6.840;2023-06-22T01:11:32;15.98;;;9.65;;
15327;SDS011;7764;51.430;6.840;2023-06-22T01:14:04;16.95;;;9.90;;
15327;SDS011;7764;51.430;6.840;2023-06-22T01:16:37;12.32;;;9.82;;
15327;SDS011;7764;51.430;6.840;2023-06-22T01:19:09;14.77;;;10.30;;
15327;SDS011;7764;51.430;6.840;2023-06-22T01:21:52;13.93;;;10.00;;
15327;SDS011;7764;51.430;6.840;2023-06-22T01:24:22;14.13;;;10.30;;
15327;SDS011;7764;51.430;6.840;2023-06-22T01:26:54;11.93;;;10.10;;
15327;SDS011;7764;51.430;6.840;2023-06-22T01:29:32;14.70;;;9.63;;
15327;SDS011;7764;51.430;6.840;2023-06-22T01:32:00;17.30;;;10.90;;
15327;SDS011;7764;51.430;6.840;2023-06-22T01:34:30;14.95;;;10.55;;
15327;SDS011;7764;51.430;6.840;2023-06-22T01:36:58;13.95;;;10.60;;
15327;SDS011;7764;51.430;6.840;2023-06-22T01:39:25;13.77;;;9.98;;
15327;SDS011;7764;51.430;6.840;2023-06-22T01:41:53;13.88;;;10.18;;
15327;SDS011;7764;51.430;6.840;2023-06-22T01:44:20;14.52;;;10.20;;
15327;SDS011;7764;51.430;6.840;2023-06-22T01:46:50;16.35;;;11.15;;
15327;SDS011;7764;51.430;6.840;2023-06-22T01:49:18;12.82;;;10.35;;
15327;SDS011;7764;51.430;6.840;2023-06-22T01:51:45;13.65;;;10.90;;
15327;SDS011;7764;51.430;6.840;2023-06-22T01:54:12;13.77;;;10.90;;
15327;SDS011;7764;51.430;6.840;2023-06-22T01:56:39;14.30;;;11.48;;
15327;SDS011;7764;51.430;6.840;2023-06-22T01:59:07;12.23;;;9.80;;
15327;SDS011;7764;51.430;6.840;2023-06-22T02:01:39;13.45;;;10.07;;
15327;SDS011;7764;51.430;6.840;2023-06-22T02:04:13;12.85;;;9.45;;
15327;SDS011;7764;51.430;6.840;2023-06-22T02:06:46;12.68;;;9.80;;
15327;SDS011;7764;51.430;6.840;2023-06-22T02:09:17;17.10;;;10.80;;
15327;SDS011;7764;51.430;6.840;2023-06-22T02:11:47;15.77;;;9.43;;
15327;SDS011;7764;51.430;6.840;2023-06-22T02:14:16;13.32;;;10.18;;
15327;SDS011;7764;51.430;6.840;2023-06-22T02:16:44;13.88;;;11.75;;
15327;SDS011;7764;51.430;6.840;2023-06-22T02:19:13;14.07;;;11.05;;
15327;SDS011;7764;51.430;6.840;2023-06-22T02:21:43;15.52;;;11.35;;
15327;SDS011;7764;51.430;6.840;2023-06-22T02:24:10;15.10;;;11.48;;
15327;SDS011;7764;51.430;6.840;2023-06-22T02:26:37;14.65;;;11.48;;
15327;SDS011;7764;51.430;6.840;2023-06-22T02:29:05;14.40;;;11.55;;
15327;SDS011;7764;51.430;6.840;2023-06-22T02:31:31;13.88;;;11.05;;
15327;SDS011;7764;51.430;6.840;2023-06-22T02:33:58;13.40;;;11.50;;
15327;SDS011;7764;51.430;6.840;2023-06-22T02:36:27;14.93;;;11.80;;
15327;SDS011;7764;51.430;6.840;2023-06-22T02:38:55;15.07;;;11.73;;
15327;SDS011;7764;51.430;6.840;2023-06-22T02:41:26;15.43;;;11.48;;
15327;SDS011;7764;51.430;6.840;2023-06-22T02:43:52;16.00;;;11.98;;
15327;SDS011;7764;51.430;6.840;2023-06-22T02:46:19;14.70;;;11.60;;
15327;SDS011;7764;51.430;6.840;2023-06-22T02:48:46;16.05;;;11.70;;
15327;SDS011;7764;51.430;6.840;2023-06-22T02:51:13;17.13;;;11.80;;
15327;SDS011;7764;51.430;6.840;2023-06-22T02:53:41;14.13;;;12.07;;
15327;SDS011;7764;51.430;6.840;2023-06-22T02:56:09;20.08;;;12.25;;
15327;SDS011;7764;51.430;6.840;2023-06-22T02:58:37;16.52;;;11.80;;
15327;SDS011;7764;51.430;6.840;2023-06-22T03:01:04;14.95;;;11.73;;
15327;SDS011;7764;51.430;6.840;2023-06-22T03:03:31;17.13;;;11.75;;
15327;SDS011;7764;51.430;6.840;2023-06-22T03:05:58;17.25;;;13.02;;
15327;SDS011;7764;51.430;6.840;2023-06-22T03:08:27;16.48;;;12.48;;
15327;SDS011;7764;51.430;6.840;2023-06-22T03:10:55;16.52;;;12.95;;
15327;SDS011;7764;51.430;6.840;2023-06-22T03:13:22;17.60;;;15.40;;
15327;SDS011;7764;51.430;6.840;2023-06-22T03:15:49;18.27;;;13.40;;
15327;SDS011;7764;51.430;6.840;2023-06-22T03:18:17;18.23;;;13.93;;
15327;SDS011;7764;51.430;6.840;2023-06-22T03:20:44;17.17;;;13.40;;
15327;SDS011;7764;51.430;6.840;2023-06-22T03:23:11;15.57;;;12.88;;
15327;SDS011;7764;51.430;6.840;2023-06-22T03:25:38;18.98;;;13.63;;
15327;SDS011;7764;51.430;6.840;2023-06-22T03:28:06;17.60;;;13.70;;
15327;SDS011;7764;51.430;6.840;2023-06-22T03:30:33;17.25;;;14.10;;
15327;SDS011;7764;51.430;6.840;2023-06-22T03:33:00;19.70;;;13.82;;
15327;SDS011;7764;51.430;6.840;2023-06-22T03:35:26;16.15;;;13.35;;
15327;SDS011;7764;51.430;6.840;2023-06-22T03:37:53;18.38;;;13.68;;
15327;SDS011;7764;51.430;6.840;2023-06-22T03:40:20;19.13;;;13.30;;
15327;SDS011;7764;51.430;6.840;2023-06-22T03:42:47;17.38;;;13.63;;
15327;SDS011;7764;51.430;6.840;2023-06-22T03:45:15;17.95;;;13.68;;
15327;SDS011;7764;51.430;6.840;2023-06-22T03:47:42;17.38;;;13.50;;
15327;SDS011;7764;51.430;6.840;2023-06-22T03:50:09;18.02;;;13.55;;
15327;SDS011;7764;51.430;6.840;2023-06-22T03:52:36;16.58;;;13.50;;
15327;SDS011;7764;51.430;6.840;2023-06-22T03:55:03;16.60;;;13.90;;
15327;SDS011;7764;51.430;6.840;2023-06-22T03:57:31;21.70;;;14.88;;
15327;SDS011;7764;51.430;6.840;2023-06-22T03:59:58;19.13;;;14.55;;
15327;SDS011;7764;51.430;6.840;2023-06-22T04:02:27;16.73;;;14.15;;
15327;SDS011;7764;51.430;6.840;2023-06-22T04:04:54;19.75;;;15.18;;
15327;SDS011;7764;51.430;6.840;2023-06-22T04:07:21;18.00;;;15.32;;
15327;SDS011;7764;51.430;6.840;2023-06-22T04:09:48;16.70;;;13.75;;
15327;SDS011;7764;51.430;6.840;2023-06-22T04:12:14;18.83;;;14.50;;
15327;SDS011;7764;51.430;6.840;2023-06-22T04:14:41;18.30;;;15.23;;
15327;SDS011;7764;51.430;6.840;2023-06-22T04:17:08;18.95;;;15.23;;
15327;SDS011;7764;51.430;6.840;2023-06-22T04:19:36;18.10;;;14.95;;
15327;SDS011;7764;51.430;6.840;2023-06-22T04:22:03;19.30;;;16.10;;
15327;SDS011;7764;51.430;6.840;2023-06-22T04:24:32;22.52;;;15.80;;
15327;SDS011;7764;51.430;6.840;2023-06-22T04:26:59;21.55;;;15.88;;
15327;SDS011;7764;51.430;6.840;2023-06-22T04:29:27;20.85;;;16.70;;
15327;SDS011;7764;51.430;6.840;2023-06-22T04:31:55;22.35;;;17.63;;
15327;SDS011;7764;51.430;6.840;2023-06-22T04:34:23;21.90;;;16.88;;
15327;SDS011;7764;51.430;6.840;2023-06-22T04:36:53;19.65;;;16.95;;
15327;SDS011;7764;51.430;6.840;2023-06-22T04:39:20;24.13;;;16.27;;
15327;SDS011;7764;51.430;6.840;2023-06-22T04:41:48;19.27;;;16.80;;
15327;SDS011;7764;51.430;6.840;2023-06-22T04:44:16;23.38;;;16.88;;
15327;SDS011;7764;51.430;6.840;2023-06-22T04:46:48;24.15;;;17.83;;
15327;SDS011;7764;51.430;6.840;2023-06-22T04:49:19;19.73;;;17.58;;
15327;SDS011;7764;51.430;6.840;2023-06-22T04:51:47;23.23;;;17.80;;
15327;SDS011;7764;51.430;6.840;2023-06-22T04:54:18;22.17;;;17.95;;
15327;SDS011;7764;51.430;6.840;2023-06-22T04:56:45;23.08;;;17.75;;
15327;SDS011;7764;51.430;6.840;2023-06-22T04:59:13;21.52;;;17.45;;
15327;SDS011;7764;51.430;6.840;2023-06-22T05:01:43;23.30;;;18.90;;
15327;SDS011;7764;51.430;6.840;2023-06-22T05:04:10;21.42;;;19.08;;
15327;SDS011;7764;51.430;6.840;2023-06-22T05:06:37;23.08;;;18.67;;
15327;SDS011;7764;51.430;6.840;2023-06-22T05:09:04;20.42;;;17.88;;
15327;SDS011;7764;51.430;6.840;2023-06-22T05:11:33;21.80;;;17.88;;
15327;SDS011;7764;51.430;6.840;2023-06-22T05:14:00;25.20;;;17.13;;
15327;SDS011;7764;51.430;6.840;2023-06-22T05:16:27;24.15;;;17.98;;
15327;SDS011;7764;51.430;6.840;2023-06-22T05:18:54;27.23;;;18.35;;
15327;SDS011;7764;51.430;6.840;2023-06-22T05:21:21;24.88;;;18.13;;
15327;SDS011;7764;51.430;6.840;2023-06-22T05:23:49;21.70;;;17.67;;
15327;SDS011;7764;51.430;6.840;2023-06-22T05:26:16;21.23;;;18.08;;
15327;SDS011;7764;51.430;6.840;2023-06-22T05:28:44;21.45;;;16.58;;
15327;SDS011;7764;51.430;6.840;2023-06-22T05:31:12;20.60;;;17.50;;
15327;SDS011;7764;51.430;6.840;2023-06-22T05:33:40;22.23;;;16.70;;
15327;SDS011;7764;51.430;6.840;2023-06-22T05:36:06;20.13;;;16.55;;
15327;SDS011;7764;51.430;6.840;2023-06-22T05:38:33;19.52;;;16.67;;
15327;SDS011;7764;51.430;6.840;2023-06-22T05:41:00;22.55;;;17.75;;
15327;SDS011;7764;51.430;6.840;2023-06-22T05:43:27;19.95;;;17.10;;
15327;SDS011;7764;51.430;6.840;2023-06-22T05:45:55;20.23;;;17.42;;
15327;SDS011;7764;51.430;6.840;2023-06-22T05:48:22;21.52;;;18.15;;
15327;SDS011;7764;51.430;6.840;2023-06-22T05:50:49;22.02;;;18.77;;
15327;SDS011;7764;51.430;6.840;2023-06-22T05:53:16;21.23;;;18.85;;
15327;SDS011;7764;51.430;6.840;2023-06-22T05:55:43;22.73;;;19.20;;
15327;SDS011;7764;51.430;6.840;2023-06-22T05:58:10;22.23;;;18.35;;
15327;SDS011;7764;51.430;6.840;2023-06-22T06:00:38;24.88;;;19.38;;
15327;SDS011;7764;51.430;6.840;2023-06-22T06:03:06;25.23;;;18.65;;
15327;SDS011;7764;51.430;6.840;2023-06-22T06:05:33;25.10;;;19.25;;
15327;SDS011;7764;51.430;6.840;2023-06-22T06:08:01;28.35;;;21.17;;
15327;SDS011;7764;51.430;6.840;2023-06-22T06:10:29;28.77;;;21.33;;
15327;SDS011;7764;51.430;6.840;2023-06-22T06:12:57;29.00;;;22.45;;
15327;SDS011;7764;51.430;6.840;2023-06-22T06:15:24;27.77;;;22.15;;
15327;SDS011;7764;51.430;6.840;2023-06-22T06:17:51;25.42;;;22.10;;
15327;SDS011;7764;51.430;6.840;2023-06-22T06:20:20;25.70;;;22.95;;
15327;SDS011;7764;51.430;6.840;2023-06-22T06:22:48;26.48;;;22.55;;
15327;SDS011;7764;51.430;6.840;2023-06-22T06:25:16;31.35;;;22.92;;
15327;SDS011;7764;51.430;6.840;2023-06-22T06:27:45;27.50;;;22.90;;
15327;SDS011;7764;51.430;6.840;2023-06-22T06:30:13;28.40;;;24.25;;
15327;SDS011;7764;51.430;6.840;2023-06-22T06:32:41;32.63;;;23.08;;
15327;SDS011;7764;51.430;6.840;2023-06-22T06:35:10;25.90;;;23.20;;
15327;SDS011;7764;51.430;6.840;2023-06-22T06:37:40;28.55;;;23.35;;
15327;SDS011;7764;51.430;6.840;2023-06-22T06:40:09;27.42;;;23.58;;
15327;SDS011;7764;51.430;6.840;2023-06-22T06:42:37;28.00;;;23.67;;
15327;SDS011;7764;51.430;6.840;2023-06-22T06:45:05;32.15;;;27.08;;
15327;SDS011;7764;51.430;6.840;2023-06-22T06:47:33;29.23;;;25.80;;
15327;SDS011;7764;51.430;6.840;2023-06-22T06:49:59;29.35;;;24.50;;
15327;SDS011;7764;51.430;6.840;2023-06-22T06:52:26;31.83;;;25.65;;
15327;SDS011;7764;51.430;6.840;2023-06-22T06:54:54;33.03;;;26.10;;
15327;SDS011;7764;51.430;6.840;2023-06-22T06:57:21;30.98;;;26.13;;
15327;SDS011;7764;51.430;6.840;2023-06-22T06:59:48;31.70;;;24.45;;
15327;SDS011;7764;51.430;6.840;2023-06-22T07:02:15;27.75;;;24.77;;
15327;SDS011;7764;51.430;6.840;2023-06-22T07:04:42;29.50;;;24.42;;
15327;SDS011;7764;51.430;6.840;2023-06-22T07:07:09;29.08;;;24.98;;
15327;SDS011;7764;51.430;6.840;2023-06-22T07:09:36;28.20;;;24.73;;
15327;SDS011;7764;51.430;6.840;2023-06-22T07:12:05;28.55;;;24.75;;
15327;SDS011;7764;51.430;6.840;2023-06-22T07:14:32;28.30;;;24.48;;
15327;SDS011;7764;51.430;6.840;2023-06-22T07:16:59;27.67;;;24.70;;
15327;SDS011;7764;51.430;6.840;2023-06-22T07:19:26;29.38;;;23.48;;
15327;SDS011;7764;51.430;6.840;2023-06-22T07:21:54;29.85;;;24.58;;
15327;SDS011;7764;51.430;6.840;2023-06-22T07:24:21;26.63;;;23.80;;
15327;SDS011;7764;51.430;6.840;2023-06-22T07:26:48;32.25;;;24.65;;
15327;SDS011;7764;51.430;6.840;2023-06-22T07:29:16;32.95;;;24.63;;
15327;SDS011;7764;51.430;6.840;2023-06-22T07:31:45;30.88;;;25.27;;
15327;SDS011;7764;51.430;6.840;2023-06-22T07:34:11;31.13;;;24.98;;
15327;SDS011;7764;51.430;6.840;2023-06-22T07:36:38;28.73;;;24.90;;
15327;SDS011;7764;51.430;6.840;2023-06-22T07:39:05;27.98;;;23.90;;
15327;SDS011;7764;51.430;6.840;2023-06-22T07:41:32;28.42;;;24.20;;
15327;SDS011;7764;51.430;6.840;2023-06-22T07:43:59;30.27;;;24.63;;
15327;SDS011;7764;51.430;6.840;2023-06-22T07:46:27;26.85;;;23.95;;
15327;SDS011;7764;51.430;6.840;2023-06-22T07:48:55;30.50;;;26.52;;
15327;SDS011;7764;51.430;6.840;2023-06-22T07:51:23;31.27;;;24.80;;
15327;SDS011;7764;51.430;6.840;2023-06-22T07:53:50;31.48;;;25.27;;
15327;SDS011;7764;51.430;6.840;2023-06-22T07:56:16;28.20;;;25.30;;
15327;SDS011;7764;51.430;6.840;2023-06-22T07:58:44;28.48;;;24.17;;
15327;SDS011;7764;51.430;6.840;2023-06-22T08:01:11;27.85;;;23.98;;
15327;SDS011;7764;51.430;6.840;2023-06-22T08:03:40;29.48;;;25.27;;
15327;SDS011;7764;51.430;6.840;2023-06-22T08:06:07;28.98;;;24.38;;
15327;SDS011;7764;51.430;6.840;2023-06-22T08:08:35;29.75;;;24.80;;
15327;SDS011;7764;51.430;6.840;2023-06-22T08:11:01;29.92;;;25.08;;
15327;SDS011;7764;51.430;6.840;2023-06-22T08:13:28;32.33;;;26.05;;
15327;SDS011;7764;51.430;6.840;2023-06-22T08:15:55;30.75;;;25.27;;
15327;SDS011;7764;51.430;6.840;2023-06-22T08:18:22;27.80;;;24.83;;
15327;SDS011;7764;51.430;6.840;2023-06-22T08:20:50;29.80;;;25.27;;
15327;SDS011;7764;51.430;6.840;2023-06-22T08:23:17;29.13;;;24.10;;
15327;SDS011;7764;51.430;6.840;2023-06-22T08:25:44;28.83;;;24.42;;
15327;SDS011;7764;51.430;6.840;2023-06-22T08:28:13;29.88;;;24.38;;
15327;SDS011;7764;51.430;6.840;2023-06-22T08:30:40;28.13;;;25.02;;
15327;SDS011;7764;51.430;6.840;2023-06-22T08:33:06;28.95;;;25.40;;
15327;SDS011;7764;51.430;6.840;2023-06-22T08:35:33;29.70;;;25.13;;
15327;SDS011;7764;51.430;6.840;2023-06-22T08:38:01;30.00;;;25.90;;
15327;SDS011;7764;51.430;6.840;2023-06-22T08:40:28;29.42;;;26.33;;
15327;SDS011;7764;51.430;6.840;2023-06-22T08:42:55;31.38;;;24.73;;
15327;SDS011;7764;51.430;6.840;2023-06-22T08:45:22;30.52;;;25.08;;
15327;SDS011;7764;51.430;6.840;2023-06-22T08:47:49;32.83;;;24.25;;
15327;SDS011;7764;51.430;6.840;2023-06-22T08:50:16;28.42;;;24.15;;
15327;SDS011;7764;51.430;6.840;2023-06-22T08:52:43;26.25;;;23.35;;
15327;SDS011;7764;51.430;6.840;2023-06-22T08:55:12;29.77;;;24.60;;
15327;SDS011;7764;51.430;6.840;2023-06-22T08:57:39;29.88;;;23.63;;
15327;SDS011;7764;51.430;6.840;2023-06-22T09:00:07;27.52;;;23.00;;
15327;SDS011;7764;51.430;6.840;2023-06-22T09:02:45;27.95;;;24.80;;
15327;SDS011;7764;51.430;6.840;2023-06-22T09:05:12;30.40;;;24.15;;
15327;SDS011;7764;51.430;6.840;2023-06-22T09:07:39;28.52;;;23.08;;
15327;SDS011;7764;51.430;6.840;2023-06-22T09:10:07;29.15;;;23.13;;
15327;SDS011;7764;51.430;6.840;2023-06-22T09:12:35;31.70;;;24.25;;
15327;SDS011;7764;51.430;6.840;2023-06-22T09:15:03;29.98;;;23.45;;
15327;SDS011;7764;51.430;6.840;2023-06-22T09:17:32;25.75;;;23.05;;
15327;SDS011;7764;51.430;6.840;2023-06-22T09:20:00;29.00;;;22.98;;
15327;SDS011;7764;51.430;6.840;2023-06-22T09:22:30;28.17;;;22.13;;
15327;SDS011;7764;51.430;6.840;2023-06-22T09:24:57;26.40;;;21.17;;
15327;SDS011;7764;51.430;6.840;2023-06-22T09:27:25;28.88;;;22.30;;
15327;SDS011;7764;51.430;6.840;2023-06-22T09:29:54;24.67;;;21.45;;
15327;SDS011;7764;51.430;6.840;2023-06-22T09:32:23;23.48;;;20.52;;
15327;SDS011;7764;51.430;6.840;2023-06-22T09:34:50;24.60;;;21.52;;
15327;SDS011;7764;51.430;6.840;2023-06-22T09:37:17;22.48;;;19.30;;
15327;SDS011;7764;51.430;6.840;2023-06-22T09:39:44;22.42;;;18.48;;
15327;SDS011;7764;51.430;6.840;2023-06-22T09:42:11;22.65;;;18.60;;
15327;SDS011;7764;51.430;6.840;2023-06-22T09:44:38;24.42;;;19.02;;
15327;SDS011;7764;51.430;6.840;2023-06-22T09:47:07;22.38;;;19.08;;
15327;SDS011;7764;51.430;6.840;2023-06-22T09:49:34;21.05;;;18.85;;
15327;SDS011;7764;51.430;6.840;2023-06-22T09:52:00;22.17;;;18.23;;
15327;SDS011;7764;51.430;6.840;2023-06-22T09:54:27;19.90;;;17.40;;
15327;SDS011;7764;51.430;6.840;2023-06-22T09:56:54;25.02;;;18.77;;
15327;SDS011;7764;51.430;6.840;2023-06-22T09:59:21;21.83;;;18.45;;
15327;SDS011;7764;51.430;6.840;2023-06-22T10:01:48;23.73;;;18.50;;
15327;SDS011;7764;51.430;6.840;2023-06-22T10:04:16;21.42;;;18.92;;
15327;SDS011;7764;51.430;6.840;2023-06-22T10:06:43;23.35;;;19.85;;
15327;SDS011;7764;51.430;6.840;2023-06-22T10:09:09;21.25;;;18.80;;
15327;SDS011;7764;51.430;6.840;2023-06-22T10:11:36;24.38;;;18.55;;
15327;SDS011;7764;51.430;6.840;2023-06-22T10:14:03;25.48;;;19.85;;
15327;SDS011;7764;51.430;6.840;2023-06-22T10:16:30;21.38;;;19.15;;
15327;SDS011;7764;51.430;6.840;2023-06-22T10:18:58;23.88;;;19.75;;
15327;SDS011;7764;51.430;6.840;2023-06-22T10:21:26;22.80;;;20.27;;
15327;SDS011;7764;51.430;6.840;2023-06-22T10:23:53;22.02;;;19.65;;
15327;SDS011;7764;51.430;6.840;2023-06-22T10:26:20;25.10;;;20.90;;
15327;SDS011;7764;51.430;6.840;2023-06-22T10:28:47;23.05;;;20.00;;
15327;SDS011;7764;51.430;6.840;2023-06-22T10:31:14;23.05;;;19.70;;
15327;SDS011;7764;51.430;6.840;2023-06-22T10:33:41;24.65;;;19.48;;
15327;SDS011;7764;51.430;6.840;2023-06-22T10:36:09;22.65;;;19.20;;
15327;SDS011;7764;51.430;6.840;2023-06-22T10:38:37;21.23;;;18.02;;
15327;SDS011;7764;51.430;6.840;2023-06-22T10:41:04;23.40;;;19.60;;
15327;SDS011;7764;51.430;6.840;2023-06-22T10:43:31;24.35;;;18.27;;
15327;SDS011;7764;51.430;6.840;2023-06-22T10:45:58;21.10;;;18.63;;
15327;SDS011;7764;51.430;6.840;2023-06-22T10:48:25;21.35;;;18.75;;
15327;SDS011;7764;51.430;6.840;2023-06-22T10:50:51;19.98;;;17.88;;
15327;SDS011;7764;51.430;6.840;2023-06-22T10:53:19;20.55;;;18.13;;
15327;SDS011;7764;51.430;6.840;2023-06-22T10:55:47;21.05;;;18.75;;
15327;SDS011;7764;51.430;6.840;2023-06-22T10:58:14;21.27;;;19.00;;
15327;SDS011;7764;51.430;6.840;2023-06-22T11:00:41;19.65;;;17.38;;
15327;SDS011;7764;51.430;6.840;2023-06-22T11:03:08;21.92;;;17.77;;
15327;SDS011;7764;51.430;6.840;2023-06-22T11:05:35;21.60;;;18.77;;
15327;SDS011;7764;51.430;6.840;2023-06-22T11:08:01;20.80;;;17.52;;
15327;SDS011;7764;51.430;6.840;2023-06-22T11:10:28;21.65;;;18.15;;
15327;SDS011;7764;51.430;6.840;2023-06-22T11:12:56;21.98;;;18.33;;
15327;SDS011;7764;51.430;6.840;2023-06-22T11:15:23;21.13;;;18.88;;
15327;SDS011;7764;51.430;6.840;2023-06-22T11:17:50;23.45;;;18.73;;
15327;SDS011;7764;51.430;6.840;2023-06-22T11:20:17;21.23;;;19.10;;
15327;SDS011;7764;51.430;6.840;2023-06-22T11:22:44;21.55;;;19.20;;
15327;SDS011;7764;51.430;6.840;2023-06-22T11:25:11;22.10;;;19.35;;
15327;SDS011;7764;51.430;6.840;2023-06-22T11:27:38;22.33;;;19.88;;
15327;SDS011;7764;51.430;6.840;2023-06-22T11:30:07;24.52;;;21.55;;
15327;SDS011;7764;51.430;6.840;2023-06-22T11:32:34;22.98;;;20.00;;
15327;SDS011;7764;51.430;6.840;2023-06-22T11:35:01;26.20;;;21.77;;
15327;SDS011;7764;51.430;6.840;2023-06-22T11:37:28;28.75;;;22.73;;
15327;SDS011;7764;51.430;6.840;2023-06-22T11:39:55;30.40;;;24.10;;
15327;SDS011;7764;51.430;6.840;2023-06-22T11:42:23;33.08;;;26.05;;
15327;SDS011;7764;51.430;6.840;2023-06-22T11:44:50;30.77;;;25.55;;
15327;SDS011;7764;51.430;6.840;2023-06-22T11:47:19;32.55;;;27.58;;
15327;SDS011;7764;51.430;6.840;2023-06-22T11:49:45;30.23;;;26.95;;
15327;SDS011;7764;51.430;6.840;2023-06-22T11:52:12;33.28;;;28.75;;
15327;SDS011;7764;51.430;6.840;2023-06-22T11:54:39;36.88;;;31.05;;
15327;SDS011;7764;51.430;6.840;2023-06-22T11:57:06;35.78;;;27.60;;
15327;SDS011;7764;51.430;6.840;2023-06-22T11:59:33;32.28;;;28.45;;
15327;SDS011;7764;51.430;6.840;2023-06-22T12:02:00;32.50;;;28.65;;
15327;SDS011;7764;51.430;6.840;2023-06-22T12:04:28;32.05;;;28.77;;
15327;SDS011;7764;51.430;6.840;2023-06-22T12:06:55;34.17;;;28.75;;
15327;SDS011;7764;51.430;6.840;2023-06-22T12:09:23;32.03;;;28.40;;
15327;SDS011;7764;51.430;6.840;2023-06-22T12:11:50;32.05;;;28.55;;
15327;SDS011;7764;51.430;6.840;2023-06-22T12:14:17;34.30;;;28.58;;
15327;SDS011;7764;51.430;6.840;2023-06-22T12:16:44;32.13;;;28.10;;
15327;SDS011;7764;51.430;6.840;2023-06-22T12:19:11;36.90;;;29.58;;
15327;SDS011;7764;51.430;6.840;2023-06-22T12:21:41;34.03;;;30.02;;
15327;SDS011;7764;51.430;6.840;2023-06-22T12:24:10;36.15;;;29.63;;
15327;SDS011;7764;51.430;6.840;2023-06-22T12:26:37;34.25;;;30.52;;
15327;SDS011;7764;51.430;6.840;2023-06-22T12:29:04;35.22;;;30.52;;
15327;SDS011;7764;51.430;6.840;2023-06-22T12:31:31;34.67;;;29.63;;
15327;SDS011;7764;51.430;6.840;2023-06-22T12:33:58;39.33;;;31.73;;
15327;SDS011;7764;51.430;6.840;2023-06-22T12:36:25;34.42;;;30.63;;
15327;SDS011;7764;51.430;6.840;2023-06-22T12:38:53;36.60;;;31.35;;
15327;SDS011;7764;51.430;6.840;2023-06-22T12:41:20;37.85;;;30.15;;
15327;SDS011;7764;51.430;6.840;2023-06-22T12:43:47;35.65;;;31.52;;
15327;SDS011;7764;51.430;6.840;2023-06-22T12:46:14;35.80;;;32.00;;
15327;SDS011;7764;51.430;6.840;2023-06-22T12:48:41;34.47;;;29.60;;
15327;SDS011;7764;51.430;6.840;2023-06-22T12:51:08;35.47;;;30.80;;
15327;SDS011;7764;51.430;6.840;2023-06-22T12:53:35;34.97;;;31.27;;
15327;SDS011;7764;51.430;6.840;2023-06-22T12:56:03;34.58;;;30.88;;
15327;SDS011;7764;51.430;6.840;2023-06-22T12:58:30;35.75;;;31.67;;
15327;SDS011;7764;51.430;6.840;2023-06-22T13:00:57;36.28;;;32.47;;
15327;SDS011;7764;51.430;6.840;2023-06-22T13:03:24;36.05;;;32.10;;
15327;SDS011;7764;51.430;6.840;2023-06-22T13:05:52;35.60;;;31.48;;
15327;SDS011;7764;51.430;6.840;2023-06-22T13:08:19;39.45;;;32.28;;
15327;SDS011;7764;51.430;6.840;2023-06-22T13:10:46;35.60;;;31.73;;
15327;SDS011;7764;51.430;6.840;2023-06-22T13:13:15;41.30;;;32.53;;
15327;SDS011;7764;51.430;6.840;2023-06-22T13:15:41;37.67;;;32.67;;
15327;SDS011;7764;51.430;6.840;2023-06-22T13:18:08;36.63;;;32.67;;
15327;SDS011;7764;51.430;6.840;2023-06-22T13:20:35;36.72;;;32.35;;
15327;SDS011;7764;51.430;6.840;2023-06-22T13:23:02;37.15;;;32.13;;
15327;SDS011;7764;51.430;6.840;2023-06-22T13:25:29;35.63;;;31.83;;
15327;SDS011;7764;51.430;6.840;2023-06-22T13:27:56;36.67;;;32.75;;
15327;SDS011;7764;51.430;6.840;2023-06-22T13:30:25;37.83;;;33.78;;
15327;SDS011;7764;51.430;6.840;2023-06-22T13:32:51;36.42;;;32.53;;
15327;SDS011;7764;51.430;6.840;2023-06-22T13:35:18;35.60;;;31.92;;
15327;SDS011;7764;51.430;6.840;2023-06-22T13:37:45;38.20;;;32.70;;
15327;SDS011;7764;51.430;6.840;2023-06-22T13:40:12;41.47;;;33.00;;
15327;SDS011;7764;51.430;6.840;2023-06-22T13:42:39;41.50;;;32.85;;
15327;SDS011;7764;51.430;6.840;2023-06-22T13:45:07;38.90;;;34.30;;
15327;SDS011;7764;51.430;6.840;2023-06-22T13:47:36;37.00;;;33.10;;
15327;SDS011;7764;51.430;6.840;2023-06-22T13:50:03;35.65;;;31.83;;
15327;SDS011;7764;51.430;6.840;2023-06-22T13:52:30;37.00;;;31.83;;
15327;SDS011;7764;51.430;6.840;2023-06-22T13:54:57;37.75;;;33.65;;
15327;SDS011;7764;51.430;6.840;2023-06-22T13:57:24;35.60;;;31.83;;
15327;SDS011;7764;51.430;6.840;2023-06-22T13:59:52;34.58;;;30.90;;
15327;SDS011;7764;51.430;6.840;2023-06-22T14:02:19;33.95;;;30.40;;
15327;SDS011;7764;51.430;6.840;2023-06-22T14:04:47;33.95;;;30.45;;
15327;SDS011;7764;51.430;6.840;2023-06-22T14:07:14;33.30;;;29.90;;
15327;SDS011;7764;51.430;6.840;2023-06-22T14:09:41;34.53;;;30.63;;
15327;SDS011;7764;51.430;6.840;2023-06-22T14:12:09;37.95;;;33.97;;
15327;SDS011;7764;51.430;6.840;2023-06-22T14:14:36;34.45;;;30.67;;
15327;SDS011;7764;51.430;6.840;2023-06-22T14:17:03;34.60;;;31.00;;
15327;SDS011;7764;51.430;6.840;2023-06-22T14:19:31;34.10;;;30.50;;
15327;SDS011;7764;51.430;6.840;2023-06-22T14:21:59;34.33;;;30.63;;
15327;SDS011;7764;51.430;6.840;2023-06-22T14:24:26;35.22;;;30.75;;
15327;SDS011;7764;51.430;6.840;2023-06-22T14:26:53;34.42;;;30.83;;
15327;SDS011;7764;51.430;6.840;2023-06-22T14:29:20;33.85;;;30.02;;
15327;SDS011;7764;51.430;6.840;2023-06-22T14:31:47;34.22;;;29.70;;
15327;SDS011;7764;51.430;6.840;2023-06-22T14:34:15;34.30;;;30.60;;
15327;SDS011;7764;51.430;6.840;2023-06-22T14:36:42;34.83;;;29.75;;
15327;SDS011;7764;51.430;6.840;2023-06-22T14:39:10;34.33;;;30.73;;